Port Mcnicoll, Canada
Current Conditions -  °F | °C
As of 11:00 PM on Thursday 27 Nov 2014 (Local Time) from CYQA Reporting Station
Light Snow Light Snow  
Wind Chill: 16°   Ceiling: 3200
Heat Index: 16°   Visibility: 9mi
Dew Point: 14°   Wind: 0mph
Humidity: 93%   Direction: NA
Pressure: 30.08"   Gusts: NA
Location:  44.75°N, 79.82°W
Report Text: CYQA 280400Z AUTO 00000KT 9SM -SN OVC032 M09/M10 A3008 RMK SLP206
Loading
Personal Weather Stations






























Interactive Weather Map New forecast layout! Learn more

10-Day Weather Forecast

Advertisements
Track Severe Weather on mobile